Time;durP1;ratioP1;P1;durP2;ratioP2;P2;SDS_P1;SDS_P2;PMS_P1;PMS_P2;Temp;Humidity;BMP_temperature;BMP_pressure;BME280_temperature;BME280_humidity;BME280_pressure;Samples;Min_cycle;Max_cycle;Signal;HPM_P1;HPM_P2
2021/04/13 00:02:49;;;;;;;1.60;1.50;;;1.40;98.20;;;;;;4963763;28;20501;-75
2021/04/13 00:05:28;;;;;;;1.63;1.53;;;1.40;98.20;;;;;;4978113;28;20878;-75
2021/04/13 00:07:56;;;;;;;1.60;1.50;;;1.40;98.20;;;;;;4966480;28;20484;-75
2021/04/13 00:10:29;;;;;;;1.60;1.50;;;1.30;98.20;;;;;;4978953;28;20519;-75
2021/04/13 00:12:57;;;;;;;1.70;1.60;;;1.30;98.20;;;;;;4967221;28;20508;-75
2021/04/13 00:15:27;;;;;;;1.70;1.60;;;1.30;98.20;;;;;;4978545;28;20849;-75
2021/04/13 00:17:55;;;;;;;1.90;1.80;;;1.30;98.20;;;;;;4966371;28;20860;-76
2021/04/13 00:20:31;;;;;;;1.87;1.77;;;1.30;98.20;;;;;;4983238;28;20540;-76
2021/04/13 00:22:58;;;;;;;1.70;1.60;;;1.20;98.20;;;;;;4970580;28;20955;-74
2021/04/13 00:25:27;;;;;;;1.70;1.60;;;1.20;98.20;;;;;;4980804;28;20466;-75
2021/04/13 00:27:54;;;;;;;1.60;1.50;;;1.20;98.20;;;;;;4972607;28;20481;-75
2021/04/13 00:30:23;;;;;;;1.70;1.60;;;1.10;98.20;;;;;;4986114;28;20877;-74
2021/04/13 00:32:55;;;;;;;1.73;1.63;;;1.10;98.20;;;;;;4966045;28;20573;-74
2021/04/13 00:35:33;;;;;;;1.70;1.60;;;1.10;98.20;;;;;;4987288;28;20464;-75
2021/04/13 00:38:32;;;;;;;1.77;1.67;;;1.10;98.20;;;;;;4968819;28;20859;-74
2021/04/13 00:41:09;;;;;;;1.60;1.50;;;1.10;98.20;;;;;;4968836;28;20540;-74
2021/04/13 00:43:40;;;;;;;1.70;1.60;;;1.00;98.20;;;;;;4988324;28;20544;-75
2021/04/13 00:46:08;;;;;;;1.90;1.80;;;1.00;98.20;;;;;;4973832;28;20528;-74
2021/04/13 00:48:37;;;;;;;1.70;1.60;;;1.00;98.20;;;;;;4976987;28;20941;-73
2021/04/13 00:51:06;;;;;;;1.70;1.60;;;1.00;98.20;;;;;;4973454;28;20484;-74
2021/04/13 00:53:35;;;;;;;1.80;1.70;;;1.00;98.20;;;;;;4981554;28;20774;-73
2021/04/13 00:56:07;;;;;;;1.70;1.60;;;1.00;98.20;;;;;;4969629;28;20472;-74
2021/04/13 00:58:36;;;;;;;1.70;1.60;;;1.00;98.20;;;;;;4981206;28;21048;-75
2021/04/13 01:01:09;;;;;;;1.70;1.60;;;0.90;98.20;;;;;;4968573;28;20508;-75
2021/04/13 01:03:36;;;;;;;1.60;1.50;;;0.90;98.20;;;;;;4971628;28;20500;-75
2021/04/13 01:06:03;;;;;;;1.60;1.50;;;0.90;98.20;;;;;;4973953;28;21015;-75
2021/04/13 01:08:33;;;;;;;1.60;1.50;;;0.90;98.20;;;;;;4983082;28;20496;-75
2021/04/13 01:11:07;;;;;;;1.70;1.60;;;0.90;98.20;;;;;;4960689;28;20492;-75
2021/04/13 01:13:41;;;;;;;1.60;1.50;;;0.80;98.20;;;;;;4993707;28;20465;-75
2021/04/13 01:16:08;;;;;;;1.70;1.60;;;0.80;98.20;;;;;;4969159;28;20545;-74
2021/04/13 01:18:38;;;;;;;1.70;1.60;;;0.80;98.20;;;;;;4979090;28;20462;-74
2021/04/13 01:21:20;;;;;;;1.67;1.57;;;0.80;98.20;;;;;;4975524;28;20512;-74
2021/04/13 01:23:51;;;;;;;1.80;1.70;;;0.80;98.20;;;;;;4978629;28;20460;-75
2021/04/13 01:26:19;;;;;;;1.70;1.60;;;0.80;98.20;;;;;;4978966;28;20523;-78
2021/04/13 01:28:46;;;;;;;1.60;1.50;;;0.70;98.20;;;;;;4994470;28;20488;-78
2021/04/13 01:31:42;;;;;;;1.70;1.60;;;0.70;98.20;;;;;;4980261;28;20488;-77
2021/04/13 01:34:07;;;;;;;1.83;1.73;;;0.70;98.20;;;;;;4979493;28;20465;-77
2021/04/13 01:36:35;;;;;;;1.70;1.60;;;0.70;98.20;;;;;;4971184;28;20488;-78
2021/04/13 01:39:07;;;;;;;1.70;1.60;;;0.70;98.20;;;;;;4985708;28;20457;-77
2021/04/13 01:41:46;;;;;;;1.70;1.60;;;0.70;98.20;;;;;;4975491;28;21006;-78
2021/04/13 01:44:17;;;;;;;1.70;1.60;;;0.60;98.20;;;;;;4980503;28;20569;-77
2021/04/13 01:46:44;;;;;;;1.60;1.50;;;0.60;98.20;;;;;;4974667;28;20495;-77
2021/04/13 01:49:11;;;;;;;1.80;1.70;;;0.60;98.20;;;;;;4982201;28;20895;-76
2021/04/13 01:51:37;;;;;;;1.80;1.70;;;0.60;98.20;;;;;;4967664;28;20485;-76
2021/04/13 01:54:10;;;;;;;1.70;1.60;;;0.60;98.20;;;;;;4979667;28;20463;-77
2021/04/13 01:56:47;;;;;;;2.10;2.00;;;0.50;98.20;;;;;;4981481;28;20465;-78
2021/04/13 01:59:19;;;;;;;1.80;1.70;;;0.50;98.20;;;;;;4988427;28;20535;-77
2021/04/13 02:01:55;;;;;;;1.70;1.60;;;0.50;98.20;;;;;;4978635;28;20561;-77
2021/04/13 02:04:26;;;;;;;1.70;1.60;;;0.50;98.20;;;;;;4988778;28;20460;-78
2021/04/13 02:06:57;;;;;;;1.60;1.50;;;0.50;98.20;;;;;;4979650;28;20851;-79
2021/04/13 02:09:29;;;;;;;1.90;1.80;;;0.50;98.20;;;;;;4983275;28;20536;-78
2021/04/13 02:12:02;;;;;;;1.90;1.80;;;0.50;98.20;;;;;;4985925;28;20488;-78
2021/04/13 02:14:33;;;;;;;1.70;1.60;;;0.50;98.20;;;;;;4998439;28;20515;-78
2021/04/13 02:17:04;;;;;;;1.80;1.70;;;0.50;98.20;;;;;;4981928;28;20499;-78
2021/04/13 02:19:32;;;;;;;1.60;1.50;;;0.50;98.20;;;;;;4983577;28;20934;-78
2021/04/13 02:22:04;;;;;;;1.70;1.60;;;0.40;98.20;;;;;;4975562;28;20489;-77
2021/04/13 02:24:33;;;;;;;1.73;1.63;;;0.40;98.20;;;;;;4989841;28;20547;-77
2021/04/13 02:27:04;;;;;;;1.80;1.70;;;0.40;98.20;;;;;;4978819;28;20482;-78
2021/04/13 02:29:35;;;;;;;1.60;1.50;;;0.40;98.20;;;;;;4986788;28;20488;-78
2021/04/13 02:32:11;;;;;;;1.73;1.63;;;0.40;98.20;;;;;;4974486;28;20496;-79
2021/04/13 02:34:41;;;;;;;1.70;1.60;;;0.40;98.20;;;;;;4977649;28;20541;-77
2021/04/13 02:37:12;;;;;;;1.77;1.67;;;0.40;98.20;;;;;;4975211;28;20482;-78
2021/04/13 02:39:41;;;;;;;2.00;1.90;;;0.40;98.20;;;;;;4988414;28;20466;-78
2021/04/13 02:42:15;;;;;;;1.70;1.60;;;0.40;98.20;;;;;;4972312;28;20490;-76
2021/04/13 02:44:42;;;;;;;1.60;1.50;;;0.40;98.20;;;;;;4987167;28;20516;-79
2021/04/13 02:47:13;;;;;;;1.80;1.70;;;0.40;98.20;;;;;;4973367;28;20500;-78
2021/04/13 02:49:42;;;;;;;1.80;1.70;;;0.40;98.20;;;;;;4984667;28;20453;-76
2021/04/13 02:52:14;;;;;;;1.80;1.70;;;0.40;98.20;;;;;;4978451;28;20851;-77
2021/04/13 02:54:47;;;;;;;6.03;5.50;;;0.40;98.20;;;;;;4980997;28;20499;-78
2021/04/13 02:57:17;;;;;;;1.73;1.63;;;0.40;98.20;;;;;;4976247;28;20488;-78
2021/04/13 02:59:43;;;;;;;1.70;1.60;;;0.40;98.20;;;;;;4990103;28;20503;-78
2021/04/13 03:02:17;;;;;;;1.70;1.60;;;0.40;98.20;;;;;;4976509;28;20544;-79
2021/04/13 03:04:45;;;;;;;1.93;1.83;;;0.40;98.20;;;;;;4990566;28;20452;-77
2021/04/13 03:07:13;;;;;;;1.70;1.60;;;0.40;98.20;;;;;;4977455;28;20532;-79
2021/04/13 03:09:41;;;;;;;1.70;1.60;;;0.40;98.20;;;;;;4987781;28;20473;-78
2021/04/13 03:12:11;;;;;;;2.00;1.90;;;0.40;98.20;;;;;;4981122;28;20584;-78
2021/04/13 03:14:41;;;;;;;1.80;1.70;;;0.40;98.20;;;;;;4992039;28;20466;-78
2021/04/13 03:17:12;;;;;;;1.83;1.73;;;0.40;98.20;;;;;;4977795;28;20492;-78
2021/04/13 03:19:39;;;;;;;1.70;1.60;;;0.40;98.20;;;;;;4984331;28;20466;-78
2021/04/13 03:22:08;;;;;;;1.90;1.80;;;0.40;98.20;;;;;;4967512;28;20478;-78
2021/04/13 03:24:40;;;;;;;1.70;1.60;;;0.40;98.20;;;;;;4974726;28;20465;-78
2021/04/13 03:27:10;;;;;;;1.60;1.50;;;0.40;98.20;;;;;;4978851;28;20484;-78
2021/04/13 03:29:44;;;;;;;1.97;1.87;;;0.40;98.20;;;;;;4980849;28;20776;-78
2021/04/13 03:32:13;;;;;;;1.80;1.70;;;0.30;98.20;;;;;;4978372;28;20484;-77
2021/04/13 03:34:40;;;;;;;1.70;1.60;;;0.30;98.20;;;;;;4984588;28;20461;-79
2021/04/13 03:37:07;;;;;;;1.70;1.60;;;0.30;98.20;;;;;;4970342;28;21674;-77
2021/04/13 03:39:36;;;;;;;1.90;1.80;;;0.40;98.20;;;;;;4983261;28;20511;-78
2021/04/13 03:42:05;;;;;;;1.83;1.73;;;0.40;98.20;;;;;;4988890;28;20683;-76
2021/04/13 03:44:36;;;;;;;1.90;1.80;;;0.40;98.20;;;;;;4989378;28;20536;-75
2021/04/13 03:47:10;;;;;;;1.80;1.70;;;0.40;98.20;;;;;;4971154;28;20924;-75
2021/04/13 03:49:39;;;;;;;1.70;1.60;;;0.40;98.20;;;;;;4982468;28;20845;-75
2021/04/13 03:52:09;;;;;;;1.80;1.70;;;0.30;98.20;;;;;;4975880;28;20509;-75
2021/04/13 03:54:37;;;;;;;1.70;1.60;;;0.40;98.20;;;;;;4977548;28;20516;-75
2021/04/13 03:57:06;;;;;;;1.73;1.63;;;0.40;98.20;;;;;;4971285;28;20571;-76
2021/04/13 03:59:36;;;;;;;1.80;1.70;;;0.40;98.20;;;;;;4984384;28;20470;-75
2021/04/13 04:02:06;;;;;;;1.80;1.70;;;0.30;98.20;;;;;;4968817;28;20874;-76
2021/04/13 04:04:35;;;;;;;1.70;1.60;;;0.30;98.20;;;;;;4974591;28;20523;-75
2021/04/13 04:07:20;;;;;;;1.70;1.60;;;0.30;98.20;;;;;;4982683;28;20480;-75
2021/04/13 04:09:47;;;;;;;1.80;1.70;;;0.30;98.20;;;;;;4987053;28;20461;-75
2021/04/13 04:12:22;;;;;;;1.93;1.83;;;0.30;98.20;;;;;;4971165;28;20473;-76
2021/04/13 04:14:58;;;;;;;1.80;1.70;;;0.30;98.20;;;;;;4981022;28;20517;-76
2021/04/13 04:17:28;;;;;;;1.80;1.70;;;0.30;98.20;;;;;;4970134;28;20488;-75
2021/04/13 04:19:56;;;;;;;1.77;1.67;;;0.30;98.20;;;;;;4984104;28;20849;-75
2021/04/13 04:22:24;;;;;;;1.70;1.60;;;0.30;98.20;;;;;;4968523;28;20509;-75
2021/04/13 04:24:52;;;;;;;1.90;1.80;;;0.30;98.20;;;;;;4982579;28;20964;-74
2021/04/13 04:27:31;;;;;;;1.70;1.60;;;0.40;98.20;;;;;;4987296;28;20950;-74
2021/04/13 04:30:22;;;;;;;1.70;1.60;;;0.30;98.20;;;;;;4989749;28;20485;-75
2021/04/13 04:32:51;;;;;;;1.80;1.70;;;0.30;98.20;;;;;;4974527;28;20509;-75
2021/04/13 04:35:39;;;;;;;1.70;1.60;;;0.30;98.20;;;;;;4984928;28;20467;-75
2021/04/13 04:38:08;;;;;;;1.80;1.70;;;0.20;98.20;;;;;;4962894;28;21012;-78
2021/04/13 04:40:56;;;;;;;1.70;1.60;;;0.20;98.20;;;;;;4985267;28;20488;-77
2021/04/13 04:43:53;;;;;;;1.80;1.70;;;0.20;98.20;;;;;;4976127;28;20993;-78
2021/04/13 04:46:41;;;;;;;1.70;1.60;;;0.20;98.20;;;;;;4972963;28;20477;-77
2021/04/13 04:49:10;;;;;;;1.80;1.70;;;0.20;98.20;;;;;;4975634;28;20485;-76
2021/04/13 04:51:37;;;;;;;1.70;1.60;;;0.20;98.20;;;;;;4976995;28;20913;-78
2021/04/13 04:54:05;;;;;;;1.80;1.70;;;0.30;98.20;;;;;;4980637;28;20564;-78
2021/04/13 04:56:31;;;;;;;1.77;1.67;;;0.30;98.20;;;;;;4976156;28;20492;-78
2021/04/13 04:58:58;;;;;;;1.70;1.60;;;0.30;98.20;;;;;;4996965;28;20469;-77
2021/04/13 05:01:25;;;;;;;1.70;1.60;;;0.30;98.20;;;;;;4976145;28;20493;-75
2021/04/13 05:03:52;;;;;;;1.70;1.60;;;0.40;98.20;;;;;;4987931;28;21270;-77
2021/04/13 05:06:21;;;;;;;1.97;1.87;;;0.40;98.20;;;;;;4969363;28;20488;-78
2021/04/13 05:08:48;;;;;;;1.70;1.60;;;0.50;98.20;;;;;;4975577;28;20674;-77
2021/04/13 05:11:15;;;;;;;1.83;1.73;;;0.50;98.20;;;;;;4980140;28;20483;-77
2021/04/13 05:13:41;;;;;;;1.63;1.53;;;0.50;98.20;;;;;;4991100;28;20462;-74
2021/04/13 05:16:07;;;;;;;2.00;1.90;;;0.50;98.20;;;;;;4973682;28;20493;-73
2021/04/13 05:18:34;;;;;;;1.70;1.60;;;0.60;98.20;;;;;;4976658;28;20462;-73
2021/04/13 05:21:00;;;;;;;1.70;1.60;;;0.60;98.20;;;;;;4977572;28;20473;-74
2021/04/13 05:23:27;;;;;;;1.77;1.67;;;0.60;98.20;;;;;;4986091;28;20508;-74
2021/04/13 05:25:54;;;;;;;1.60;1.50;;;0.70;98.20;;;;;;4969950;28;20469;-73
2021/04/13 05:28:21;;;;;;;1.70;1.60;;;0.70;98.20;;;;;;4987934;28;20554;-74
2021/04/13 05:30:49;;;;;;;1.67;1.57;;;0.70;98.20;;;;;;4972251;28;20486;-73
2021/04/13 05:33:15;;;;;;;2.00;1.90;;;0.70;98.20;;;;;;4980700;28;20560;-74
2021/04/13 05:35:42;;;;;;;1.70;1.60;;;0.70;98.20;;;;;;4981775;28;20513;-74
2021/04/13 05:38:14;;;;;;;1.83;1.73;;;0.70;98.20;;;;;;4970938;28;20481;-76
2021/04/13 05:40:42;;;;;;;1.80;1.70;;;0.80;98.20;;;;;;4987803;28;20775;-75
2021/04/13 05:43:11;;;;;;;1.60;1.50;;;0.90;98.20;;;;;;4972398;28;21050;-73
2021/04/13 05:45:41;;;;;;;1.60;1.50;;;0.90;98.20;;;;;;4983597;28;20470;-76
2021/04/13 05:48:10;;;;;;;1.60;1.50;;;1.00;98.20;;;;;;4969545;28;20923;-74
2021/04/13 05:50:38;;;;;;;1.70;1.60;;;1.10;98.20;;;;;;4990542;28;20511;-74
2021/04/13 05:53:05;;;;;;;1.80;1.70;;;1.20;98.20;;;;;;4977422;28;20513;-74
2021/04/13 05:55:32;;;;;;;1.60;1.50;;;1.20;98.20;;;;;;4989525;28;20847;-74
2021/04/13 05:58:02;;;;;;;1.73;1.63;;;1.30;98.20;;;;;;4973567;28;20485;-74
2021/04/13 06:00:30;;;;;;;1.70;1.60;;;1.40;98.20;;;;;;4991144;28;20842;-72
2021/04/13 06:02:58;;;;;;;1.60;1.50;;;1.40;98.20;;;;;;4970890;28;20485;-77
2021/04/13 06:05:28;;;;;;;1.60;1.50;;;1.50;98.20;;;;;;4986146;28;21054;-74
2021/04/13 06:07:55;;;;;;;1.70;1.60;;;1.60;98.20;;;;;;5008087;23;20476;-75
2021/04/13 06:10:22;;;;;;;1.73;1.63;;;1.70;98.20;;;;;;4992427;28;20772;-76
2021/04/13 06:12:54;;;;;;;1.70;1.60;;;1.70;98.20;;;;;;4986133;28;20487;-77
2021/04/13 06:15:24;;;;;;;1.67;1.57;;;1.80;98.20;;;;;;4975556;28;20871;-76
2021/04/13 06:17:51;;;;;;;1.60;1.40;;;1.90;98.20;;;;;;4993925;28;20488;-75
2021/04/13 06:20:19;;;;;;;1.60;1.50;;;2.00;98.20;;;;;;4988442;28;20480;-75
2021/04/13 06:22:47;;;;;;;1.60;1.50;;;2.10;98.20;;;;;;4989114;28;20894;-79
2021/04/13 06:25:15;;;;;;;1.60;1.50;;;2.20;98.20;;;;;;4988860;28;20531;-79
2021/04/13 06:27:41;;;;;;;1.60;1.50;;;2.30;98.20;;;;;;4997697;28;21073;-79
2021/04/13 06:30:08;;;;;;;1.70;1.60;;;2.40;98.20;;;;;;4992417;28;20489;-76
2021/04/13 06:32:35;;;;;;;1.60;1.50;;;2.50;98.20;;;;;;4990434;28;20870;-74
2021/04/13 06:35:02;;;;;;;1.60;1.40;;;2.50;98.20;;;;;;4986753;28;20464;-75
2021/04/13 06:37:28;;;;;;;1.60;1.50;;;2.60;98.20;;;;;;4982872;28;20555;-76
2021/04/13 06:39:55;;;;;;;1.70;1.60;;;2.70;98.20;;;;;;4981868;28;20474;-76
2021/04/13 06:42:37;;;;;;;1.60;1.50;;;2.80;98.20;;;;;;4988152;28;20483;-77
2021/04/13 06:45:32;;;;;;;1.60;1.50;;;2.80;98.20;;;;;;4987012;28;20461;-76
2021/04/13 06:48:34;;;;;;;1.60;1.40;;;2.90;98.20;;;;;;4984269;28;20488;-76
2021/04/13 06:51:11;;;;;;;1.60;1.40;;;3.00;98.20;;;;;;4973981;28;20488;-76
2021/04/13 06:53:53;;;;;;;1.80;1.70;;;3.10;98.20;;;;;;4993303;28;20842;-76
2021/04/13 06:56:33;;;;;;;1.60;1.47;;;3.20;98.20;;;;;;4973919;28;20532;-77
2021/04/13 06:59:24;;;;;;;1.70;1.60;;;3.30;98.20;;;;;;4986382;28;20643;-77
2021/04/13 07:01:54;;;;;;;1.60;1.50;;;3.40;98.20;;;;;;4971014;28;20487;-76
2021/04/13 07:04:29;;;;;;;1.63;1.53;;;3.50;98.20;;;;;;4984290;28;20470;-76
2021/04/13 07:07:02;;;;;;;1.60;1.50;;;3.50;98.20;;;;;;4979305;28;20486;-76
2021/04/13 07:09:34;;;;;;;1.60;1.40;;;3.70;98.20;;;;;;4983150;28;20836;-76
2021/04/13 07:12:06;;;;;;;1.60;1.50;;;3.70;98.20;;;;;;4973087;28;20551;-76
2021/04/13 07:14:39;;;;;;;1.60;1.30;;;3.90;98.20;;;;;;4982306;28;20469;-75
2021/04/13 07:17:10;;;;;;;1.60;1.40;;;4.00;98.20;;;;;;4988579;28;20801;-77
2021/04/13 07:19:41;;;;;;;1.60;1.40;;;4.00;98.20;;;;;;4991712;28;20465;-77
2021/04/13 07:22:16;;;;;;;1.60;1.50;;;4.10;98.20;;;;;;4984635;28;20856;-76
2021/04/13 07:24:50;;;;;;;1.60;1.30;;;4.20;98.20;;;;;;4992720;28;21150;-77
2021/04/13 07:27:21;;;;;;;1.60;1.30;;;4.30;98.20;;;;;;4993743;28;20483;-77
2021/04/13 07:29:51;;;;;;;1.60;1.37;;;4.30;98.20;;;;;;4992418;28;20489;-77
2021/04/13 07:32:19;;;;;;;1.60;1.30;;;4.40;98.20;;;;;;4982593;28;20481;-77
2021/04/13 07:34:52;;;;;;;1.60;1.40;;;4.40;98.20;;;;;;4991869;28;20463;-76
2021/04/13 07:37:24;;;;;;;1.60;1.30;;;4.50;98.20;;;;;;4975890;28;20547;-76
2021/04/13 07:39:55;;;;;;;1.60;1.30;;;4.60;98.20;;;;;;4983480;28;20465;-77
2021/04/13 07:42:28;;;;;;;1.60;1.30;;;4.70;98.20;;;;;;4981891;28;20980;-74
2021/04/13 07:45:12;;;;;;;1.60;1.33;;;4.80;98.20;;;;;;4986910;28;20468;-76
2021/04/13 07:48:09;;;;;;;1.60;1.30;;;4.90;98.20;;;;;;4983416;28;20566;-75
2021/04/13 07:50:45;;;;;;;1.60;1.40;;;4.90;98.20;;;;;;4990219;28;20484;-75
2021/04/13 07:53:19;;;;;;;1.60;1.30;;;5.00;98.20;;;;;;4979033;28;20491;-77
2021/04/13 07:55:53;;;;;;;1.53;1.30;;;5.10;98.20;;;;;;4984690;28;20472;-74
2021/04/13 07:58:37;;;;;;;1.60;1.47;;;5.20;98.20;;;;;;4996274;28;20461;-75
2021/04/13 08:01:07;;;;;;;1.60;1.33;;;5.20;98.20;;;;;;4981537;28;20531;-75
2021/04/13 08:03:34;;;;;;;1.57;1.30;;;5.30;98.20;;;;;;5001957;28;20890;-76
2021/04/13 08:06:05;;;;;;;1.60;1.40;;;5.50;98.20;;;;;;4976031;28;20465;-77
2021/04/13 08:08:33;;;;;;;1.60;1.40;;;5.70;98.20;;;;;;4993725;28;20496;-76
2021/04/13 08:11:09;;;;;;;1.60;1.40;;;6.00;98.20;;;;;;4968613;28;20492;-76
2021/04/13 08:13:36;;;;;;;1.57;1.30;;;6.30;98.20;;;;;;4995857;28;20459;-76
2021/04/13 08:16:03;;;;;;;1.60;1.30;;;6.60;98.20;;;;;;4976395;28;20469;-75
2021/04/13 08:18:35;;;;;;;1.53;1.20;;;6.80;98.20;;;;;;4999900;28;20884;-78
2021/04/13 08:21:22;;;;;;;1.57;1.20;;;7.10;98.20;;;;;;4975533;28;20548;-77
2021/04/13 08:23:50;;;;;;;1.50;1.20;;;7.50;98.20;;;;;;4999140;28;20544;-78
2021/04/13 08:26:42;;;;;;;1.57;1.20;;;7.70;98.20;;;;;;4983731;28;20469;-77
2021/04/13 08:29:39;;;;;;;1.57;1.20;;;7.90;98.20;;;;;;4983902;28;20525;-77
2021/04/13 08:35:08;;;;;;;1.53;1.10;;;8.00;97.60;;;;;;4984016;28;20464;-77
2021/04/13 08:37:51;;;;;;;1.60;1.30;;;8.10;97.40;;;;;;4989488;28;21006;-77
2021/04/13 08:40:25;;;;;;;1.60;1.20;;;8.20;97.50;;;;;;4979038;28;20517;-79
2021/04/13 08:42:58;;;;;;;1.53;1.10;;;8.40;96.40;;;;;;4996201;28;20514;-80
2021/04/13 08:45:32;;;;;;;1.53;1.10;;;8.70;97.10;;;;;;4989825;28;20476;-79
2021/04/13 08:48:02;;;;;;;1.60;1.20;;;8.90;96.10;;;;;;4991148;28;20480;-79
2021/04/13 08:50:38;;;;;;;1.60;1.17;;;9.20;95.80;;;;;;4987144;28;20984;-80
2021/04/13 08:53:08;;;;;;;1.57;1.10;;;9.40;94.90;;;;;;4996237;28;20479;-79
2021/04/13 08:55:48;;;;;;;1.53;1.10;;;9.70;93.30;;;;;;4991421;28;20527;-78
2021/04/13 08:58:29;;;;;;;1.60;1.20;;;9.90;90.80;;;;;;4982270;28;20547;-79
2021/04/13 09:00:57;;;;;;;1.50;1.00;;;9.90;90.30;;;;;;4978098;28;20507;-79
2021/04/13 09:03:28;;;;;;;1.60;1.10;;;9.90;92.30;;;;;;4985548;28;20466;-79
2021/04/13 09:06:11;;;;;;;1.50;1.00;;;10.20;93.30;;;;;;4979923;28;20468;-79
2021/04/13 09:08:54;;;;;;;1.60;1.13;;;10.50;90.70;;;;;;4991814;28;20528;-76
2021/04/13 09:11:30;;;;;;;1.50;1.00;;;10.60;89.00;;;;;;4979594;28;20480;-77
2021/04/13 09:14:07;;;;;;;1.53;1.10;;;10.70;88.20;;;;;;4997384;28;20485;-80
2021/04/13 09:16:38;;;;;;;1.60;1.00;;;10.90;90.20;;;;;;4969566;28;21209;-80
2021/04/13 09:19:09;;;;;;;1.57;1.00;;;11.10;88.60;;;;;;4987934;28;20752;-78
2021/04/13 09:21:44;;;;;;;1.60;1.00;;;11.30;88.30;;;;;;4985162;28;20491;-77
2021/04/13 09:24:20;;;;;;;1.50;1.00;;;11.50;87.50;;;;;;4991242;28;20534;-79
2021/04/13 09:27:00;;;;;;;1.50;1.00;;;11.50;86.50;;;;;;4973980;28;21019;-77
2021/04/13 09:29:44;;;;;;;1.50;1.00;;;11.50;87.40;;;;;;4986088;28;20661;-80
2021/04/13 09:32:33;;;;;;;1.57;1.00;;;11.40;85.70;;;;;;4987553;28;21013;-77
2021/04/13 09:35:26;;;;;;;1.53;1.00;;;11.40;85.70;;;;;;4979257;28;20472;-77
2021/04/13 09:38:05;;;;;;;1.57;1.10;;;11.40;85.60;;;;;;4977433;28;20484;-81
2021/04/13 09:40:38;;;;;;;1.57;1.00;;;11.70;84.70;;;;;;4988424;28;20491;-79
2021/04/13 09:43:26;;;;;;;1.53;1.00;;;12.00;85.00;;;;;;4991957;28;20535;-77
2021/04/13 09:46:01;;;;;;;1.50;1.00;;;12.30;85.60;;;;;;4969713;28;20878;-81
2021/04/13 09:48:58;;;;;;;1.53;1.00;;;12.40;84.20;;;;;;4993219;28;20555;-81
2021/04/13 09:51:28;;;;;;;1.50;0.97;;;12.20;83.20;;;;;;4978143;28;21080;-78
2021/04/13 09:54:21;;;;;;;1.57;1.00;;;12.10;82.70;;;;;;4996518;28;20460;-81
2021/04/13 09:57:17;;;;;;;1.53;1.00;;;11.90;83.10;;;;;;4977530;28;20656;-77
2021/04/13 10:00:02;;;;;;;1.50;1.00;;;11.60;82.90;;;;;;4989704;28;20479;-79
2021/04/13 10:02:48;;;;;;;1.53;1.00;;;11.40;83.90;;;;;;4988893;28;20943;-80
2021/04/13 10:05:16;;;;;;;1.60;1.30;;;11.10;83.30;;;;;;4987698;28;20563;-80
2021/04/13 10:07:52;;;;;;;1.50;1.00;;;10.90;85.50;;;;;;4981253;28;20490;-79
2021/04/13 10:10:25;;;;;;;1.50;1.00;;;10.70;84.00;;;;;;4981940;28;20497;-78
2021/04/13 10:13:33;;;;;;;1.50;1.10;;;10.50;85.00;;;;;;4989946;28;20476;-77
2021/04/13 10:16:04;;;;;;;1.50;1.10;;;10.30;85.90;;;;;;4953325;28;20535;-77
2021/04/13 10:19:00;;;;;;;1.50;1.00;;;10.10;85.00;;;;;;4997129;28;20472;-77
2021/04/13 10:21:54;;;;;;;1.50;1.10;;;9.90;85.20;;;;;;4967606;28;20591;-80
2021/04/13 10:24:50;;;;;;;1.50;1.10;;;10.00;86.80;;;;;;4988710;28;21011;-78
2021/04/13 10:27:57;;;;;;;1.50;1.00;;;10.30;86.60;;;;;;4947003;28;20968;-79
2021/04/13 10:31:05;;;;;;;1.53;1.10;;;10.80;83.90;;;;;;4989896;28;20492;-81
2021/04/13 10:34:02;;;;;;;1.50;1.10;;;11.20;82.30;;;;;;4974519;28;20477;-80
2021/04/13 10:37:04;;;;;;;1.50;1.07;;;11.50;80.70;;;;;;4981800;28;20693;-81
2021/04/13 10:39:41;;;;;;;1.50;1.00;;;11.80;81.00;;;;;;4992545;28;20460;-82
2021/04/13 10:43:10;;;;;;;1.50;1.00;;;12.10;83.20;;;;;;4985534;28;20483;-80
2021/04/13 10:46:10;;;;;;;1.50;1.00;;;12.20;81.60;;;;;;4985432;28;20901;-77
2021/04/13 10:49:20;;;;;;;1.50;1.00;;;12.60;80.50;;;;;;4958263;28;20526;-78
2021/04/13 10:52:17;;;;;;;1.50;1.10;;;12.70;78.20;;;;;;4985071;28;21080;-82
2021/04/13 10:55:11;;;;;;;1.50;1.00;;;12.90;76.20;;;;;;4959719;28;20734;-79
2021/04/13 10:58:04;;;;;;;1.53;1.00;;;12.80;76.80;;;;;;4979179;28;20962;-81
2021/04/13 11:00:40;;;;;;;1.57;1.00;;;13.00;77.40;;;;;;4986340;28;20478;-81
2021/04/13 11:03:48;;;;;;;1.50;1.00;;;13.30;78.20;;;;;;4975727;28;20489;-81
2021/04/13 11:06:56;;;;;;;1.50;1.00;;;13.60;75.90;;;;;;4966944;28;20492;-82
2021/04/13 11:10:03;;;;;;;1.50;1.00;;;14.00;74.50;;;;;;4993463;28;20564;-83
2021/04/13 11:13:01;;;;;;;1.50;0.97;;;14.20;75.80;;;;;;4993804;28;21053;-83
2021/04/13 11:16:02;;;;;;;1.53;1.00;;;14.60;72.90;;;;;;4959742;28;20465;-82
2021/04/13 11:19:09;;;;;;;1.50;1.00;;;15.10;72.60;;;;;;4976972;28;20517;-82
2021/04/13 11:22:17;;;;;;;1.50;1.00;;;15.20;71.90;;;;;;4982764;28;20492;-83
2021/04/13 11:25:07;;;;;;;1.50;1.10;;;14.90;71.10;;;;;;4991579;28;20805;-81
2021/04/13 11:28:07;;;;;;;1.50;0.90;;;14.30;69.50;;;;;;4982034;28;20991;-82
2021/04/13 11:31:37;;;;;;;1.50;0.90;;;13.70;70.50;;;;;;4979755;28;20489;-79
2021/04/13 11:34:17;;;;;;;1.50;1.00;;;13.20;74.60;;;;;;4973554;28;20481;-84
2021/04/13 11:36:58;;;;;;;1.50;0.90;;;13.30;73.70;;;;;;4970704;28;20517;-84
2021/04/13 11:39:32;;;;;;;1.50;0.97;;;13.50;73.80;;;;;;4976229;28;20469;-82
2021/04/13 11:42:17;;;;;;;1.50;1.00;;;13.90;75.40;;;;;;4987217;28;20502;-82
2021/04/13 11:44:51;;;;;;;1.50;1.00;;;14.30;72.20;;;;;;4988039;28;20535;-81
2021/04/13 11:47:27;;;;;;;1.50;1.00;;;14.50;72.30;;;;;;4981519;28;20483;-82
2021/04/13 11:50:01;;;;;;;1.50;1.00;;;14.50;70.70;;;;;;4976585;28;20504;-82
2021/04/13 11:52:34;;;;;;;1.50;1.00;;;14.40;71.30;;;;;;4983241;28;20522;-82
2021/04/13 11:55:01;;;;;;;1.50;0.90;;;14.40;71.50;;;;;;4985694;28;20465;-80
2021/04/13 11:57:30;;;;;;;1.50;1.00;;;14.10;70.30;;;;;;4981712;28;20599;-81
2021/04/13 12:00:25;;;;;;;1.50;1.00;;;14.20;72.90;;;;;;4984402;28;20468;-82
2021/04/13 12:03:19;;;;;;;1.50;1.00;;;14.20;70.80;;;;;;4992397;28;20982;-81
2021/04/13 12:05:50;;;;;;;1.50;0.90;;;14.10;70.70;;;;;;4983625;28;20466;-83
2021/04/13 12:08:50;;;;;;;1.60;1.10;;;13.90;72.10;;;;;;4968920;28;20490;-80
2021/04/13 12:11:33;;;;;;;1.50;1.00;;;13.40;71.50;;;;;;4981572;28;20490;-80
2021/04/13 12:14:37;;;;;;;1.50;0.97;;;13.10;71.60;;;;;;4994512;28;21002;-80
2021/04/13 12:17:20;;;;;;;1.50;1.00;;;12.60;69.70;;;;;;4982328;28;20500;-79
2021/04/13 12:20:23;;;;;;;1.50;1.00;;;12.10;69.50;;;;;;4975257;28;20764;-82
2021/04/13 12:22:51;;;;;;;1.50;0.90;;;11.90;70.70;;;;;;4996481;28;20547;-81
2021/04/13 12:25:38;;;;;;;1.50;1.07;;;12.20;72.70;;;;;;4988710;28;20472;-83
2021/04/13 12:28:07;;;;;;;1.50;1.00;;;12.60;72.40;;;;;;4997330;28;20876;-82
2021/04/13 12:31:13;;;;;;;1.50;1.00;;;13.00;71.20;;;;;;4982869;28;20489;-84
2021/04/13 12:34:07;;;;;;;1.50;1.00;;;13.50;71.50;;;;;;4973733;28;20491;-80
2021/04/13 12:37:00;;;;;;;1.50;1.00;;;14.10;70.00;;;;;;4983175;28;20484;-79
2021/04/13 12:39:50;;;;;;;1.50;1.00;;;14.60;68.90;;;;;;4995129;28;20522;-81
2021/04/13 12:42:44;;;;;;;1.50;0.93;;;14.80;65.80;;;;;;4989650;28;20500;-82
2021/04/13 12:45:42;;;;;;;1.50;0.90;;;15.00;68.20;;;;;;4991009;28;20560;-83
2021/04/13 12:48:38;;;;;;;1.50;1.00;;;15.30;68.60;;;;;;4992679;28;20966;-82
2021/04/13 12:51:28;;;;;;;1.50;1.00;;;15.70;68.80;;;;;;4966449;28;20985;-83
2021/04/13 12:54:18;;;;;;;1.50;0.90;;;15.80;65.70;;;;;;4999913;28;20811;-82
2021/04/13 12:56:55;;;;;;;1.50;1.00;;;15.70;66.10;;;;;;4986355;28;20967;-82
2021/04/13 12:59:25;;;;;;;1.50;0.90;;;15.70;64.00;;;;;;4992068;28;20956;-81
2021/04/13 13:01:52;;;;;;;1.50;0.90;;;15.60;62.60;;;;;;4982811;28;20480;-81
2021/04/13 13:04:20;;;;;;;1.50;0.90;;;15.20;62.20;;;;;;4993423;28;20484;-79
2021/04/13 13:06:50;;;;;;;1.50;0.90;;;14.80;63.20;;;;;;4981543;28;20491;-80
2021/04/13 13:09:29;;;;;;;1.50;0.90;;;14.40;64.90;;;;;;4991468;28;20488;-82
2021/04/13 13:12:04;;;;;;;1.50;1.00;;;14.20;65.20;;;;;;4984743;28;20550;-79
2021/04/13 13:14:33;;;;;;;1.50;0.90;;;14.00;66.00;;;;;;4989637;28;20476;-82
2021/04/13 13:17:01;;;;;;;1.50;0.90;;;13.70;64.30;;;;;;4969161;28;21270;-80
2021/04/13 13:19:30;;;;;;;1.50;1.00;;;13.30;67.10;;;;;;4981974;28;20633;-80
2021/04/13 13:21:59;;;;;;;1.50;1.00;;;13.20;67.20;;;;;;4981687;28;20511;-78
2021/04/13 13:24:31;;;;;;;1.47;0.90;;;13.30;68.70;;;;;;4993211;28;20492;-78
2021/04/13 13:26:58;;;;;;;1.50;0.90;;;13.60;66.50;;;;;;4977880;28;20527;-81
2021/04/13 13:29:24;;;;;;;1.50;0.90;;;13.80;69.00;;;;;;4991734;28;20512;-81
2021/04/13 13:31:51;;;;;;;1.47;0.90;;;14.20;69.20;;;;;;4982198;28;20522;-81
2021/04/13 13:34:20;;;;;;;1.50;0.93;;;14.60;65.70;;;;;;4991813;28;20476;-81
2021/04/13 13:36:49;;;;;;;1.50;0.90;;;14.90;67.20;;;;;;4976262;28;20485;-81
2021/04/13 13:39:18;;;;;;;1.50;0.90;;;15.10;64.30;;;;;;5010846;23;20503;-79
2021/04/13 13:41:47;;;;;;;1.50;0.90;;;15.20;62.30;;;;;;5000149;28;20538;-76
2021/04/13 13:44:20;;;;;;;1.50;0.90;;;15.40;63.30;;;;;;5007458;28;20481;-80